createdAt,value
2019-04-07T00:01:45.790Z,17.43
2019-04-07T00:04:49.018Z,17.23
2019-04-07T00:07:34.568Z,16.97
2019-04-07T00:10:19.180Z,16.60
2019-04-07T00:13:04.035Z,17.50
2019-04-07T00:15:48.822Z,17.37
2019-04-07T00:18:33.855Z,18.17
2019-04-07T00:21:18.514Z,18.40
2019-04-07T00:24:03.537Z,17.30
2019-04-07T00:26:48.759Z,17.67
2019-04-07T00:29:33.467Z,17.90
2019-04-07T00:32:18.458Z,19.57
2019-04-07T00:35:03.402Z,19.60
2019-04-07T00:37:49.102Z,18.67
2019-04-07T00:40:33.916Z,19.47
2019-04-07T00:43:18.782Z,20.50
2019-04-07T00:46:04.597Z,20.13
2019-04-07T00:48:57.994Z,21.67
2019-04-07T00:51:43.223Z,21.40
2019-04-07T00:54:38.036Z,21.90
2019-04-07T00:57:31.651Z,22.57
2019-04-07T01:00:18.252Z,22.03
2019-04-07T01:03:13.743Z,22.07
2019-04-07T01:06:08.712Z,21.73
2019-04-07T01:09:02.331Z,22.20
2019-04-07T01:11:48.581Z,22.03
2019-04-07T01:14:33.623Z,22.37
2019-04-07T01:17:19.091Z,23.27
2019-04-07T01:20:12.007Z,23.80
2019-04-07T01:22:56.515Z,22.87
2019-04-07T01:25:49.911Z,24.57
2019-04-07T01:28:35.303Z,23.67
2019-04-07T01:31:28.743Z,25.37
2019-04-07T01:34:13.452Z,25.07
2019-04-07T01:36:58.491Z,27.30
2019-04-07T01:39:53.696Z,25.93
2019-04-07T01:42:57.295Z,24.63
2019-04-07T01:46:20.709Z,25.10
2019-04-07T01:52:56.031Z,24.27
2019-04-07T01:56:02.949Z,24.37
2019-04-07T01:59:14.456Z,23.23
2019-04-07T02:02:25.860Z,24.53
2019-04-07T02:05:29.851Z,24.00
2019-04-07T02:08:33.823Z,23.77
2019-04-07T02:11:24.483Z,23.13
2019-04-07T02:14:24.111Z,24.43
2019-04-07T02:17:59.349Z,23.40
2019-04-07T02:21:29.595Z,23.30
2019-04-07T02:25:17.376Z,23.40
2019-04-07T02:28:43.832Z,23.03
2019-04-07T02:32:05.394Z,23.87
2019-04-07T02:35:08.759Z,23.87
2019-04-07T02:38:36.858Z,25.30
2019-04-07T02:42:05.044Z,23.40
2019-04-07T02:45:28.552Z,23.87
2019-04-07T02:48:32.307Z,23.80
2019-04-07T02:51:24.299Z,24.73
2019-04-07T02:54:55.209Z,23.73
2019-04-07T02:58:36.544Z,23.40
2019-04-07T03:01:55.392Z,24.70
2019-04-07T03:05:22.299Z,23.07
2019-04-07T03:08:42.942Z,23.50
2019-04-07T03:15:22.718Z,22.53
2019-04-07T03:18:34.431Z,24.07
2019-04-07T03:21:38.255Z,22.83
2019-04-07T03:24:48.433Z,23.83
2019-04-07T03:27:54.689Z,25.83
2019-04-07T03:31:36.568Z,24.90
2019-04-07T03:35:19.863Z,22.93
2019-04-07T03:38:12.697Z,23.20
2019-04-07T03:41:33.376Z,22.13
2019-04-07T03:44:24.463Z,23.50
2019-04-07T03:47:55.664Z,22.67
2019-04-07T03:51:03.072Z,22.97
2019-04-07T03:54:30.354Z,22.10
2019-04-07T03:57:35.267Z,23.17
2019-04-07T04:00:56.281Z,23.20
2019-04-07T04:07:47.613Z,21.17
2019-04-07T04:10:38.725Z,21.53
2019-04-07T04:13:32.818Z,22.03
2019-04-07T04:16:56.287Z,21.73
2019-04-07T04:19:49.566Z,21.20
2019-04-07T04:22:34.006Z,21.10
2019-04-07T04:25:27.964Z,20.20
2019-04-07T04:28:21.882Z,20.07
2019-04-07T04:31:06.827Z,19.17
2019-04-07T04:34:01.587Z,20.17
2019-04-07T04:36:46.593Z,20.03
2019-04-07T04:39:31.503Z,20.40
2019-04-07T04:42:26.817Z,19.80
2019-04-07T04:45:11.473Z,20.17
2019-04-07T04:48:05.160Z,19.57
2019-04-07T04:50:50.459Z,19.77
2019-04-07T04:53:35.725Z,19.60
2019-04-07T04:56:22.930Z,19.93
2019-04-07T04:59:07.327Z,19.70
2019-04-07T05:01:53.156Z,19.47
2019-04-07T05:04:38.504Z,19.77
2019-04-07T05:07:24.419Z,21.23
2019-04-07T05:10:10.231Z,21.57
2019-04-07T05:13:04.556Z,21.73
2019-04-07T05:15:58.123Z,21.53
2019-04-07T05:18:43.668Z,22.03
2019-04-07T05:21:28.234Z,22.27
2019-04-07T05:24:13.299Z,21.63
2019-04-07T05:26:58.541Z,21.13
2019-04-07T05:29:43.067Z,21.80
2019-04-07T05:32:28.564Z,21.63
2019-04-07T05:35:13.270Z,21.43
2019-04-07T05:38:02.654Z,22.97
2019-04-07T05:40:44.873Z,21.33
2019-04-07T05:43:38.529Z,21.07
2019-04-07T05:46:23.050Z,22.00
2019-04-07T05:49:09.355Z,21.23
2019-04-07T05:51:54.477Z,21.23
2019-04-07T05:54:39.440Z,21.93
2019-04-07T05:57:25.012Z,20.53
2019-04-07T06:00:13.644Z,21.17
2019-04-07T06:02:57.011Z,21.83
2019-04-07T06:05:41.557Z,20.70
2019-04-07T06:08:32.551Z,21.40
2019-04-07T06:11:12.702Z,20.53
2019-04-07T06:13:57.483Z,22.00
2019-04-07T06:16:42.805Z,22.57
2019-04-07T06:19:40.327Z,20.00
2019-04-07T06:22:23.633Z,18.40
2019-04-07T06:25:17.317Z,18.53
2019-04-07T06:28:02.262Z,18.77
2019-04-07T06:30:47.484Z,18.00
2019-04-07T06:33:41.500Z,19.07
2019-04-07T06:36:35.275Z,19.00
2019-04-07T06:39:20.089Z,17.90
2019-04-07T06:42:04.252Z,18.33
2019-04-07T06:44:51.085Z,19.17
2019-04-07T06:47:55.158Z,19.30
2019-04-07T06:51:00.405Z,20.27
2019-04-07T06:54:10.148Z,23.47
2019-04-07T06:57:38.447Z,31.63
2019-04-07T07:01:06.795Z,29.17
2019-04-07T07:04:12.779Z,25.03
2019-04-07T07:07:16.857Z,24.63
2019-04-07T07:13:36.617Z,25.40
2019-04-07T07:17:02.955Z,24.80
2019-04-07T07:20:33.299Z,24.37
2019-04-07T07:23:47.126Z,30.37
2019-04-07T07:26:32.991Z,28.83
2019-04-07T07:29:17.166Z,24.20
2019-04-07T07:32:03.968Z,23.37
2019-04-07T07:34:48.665Z,22.23
2019-04-07T07:37:34.117Z,24.00
2019-04-07T07:40:18.851Z,22.93
2019-04-07T07:43:03.476Z,22.83
2019-04-07T07:45:49.179Z,20.97
2019-04-07T07:48:33.525Z,22.43
2019-04-07T07:51:27.457Z,22.13
2019-04-07T07:54:13.971Z,22.73
2019-04-07T07:56:59.063Z,20.23
2019-04-07T07:59:45.032Z,19.10
2019-04-07T08:02:31.139Z,18.70
2019-04-07T08:05:29.812Z,17.83
2019-04-07T08:08:11.666Z,17.90
2019-04-07T08:10:59.743Z,18.37
2019-04-07T08:13:45.704Z,18.97
2019-04-07T08:16:39.064Z,20.07
2019-04-07T08:19:33.004Z,20.37
2019-04-07T08:22:28.006Z,21.00
2019-04-07T08:25:04.098Z,21.17
2019-04-07T08:27:48.792Z,21.13
2019-04-07T08:30:33.455Z,23.53
2019-04-07T08:33:18.912Z,24.33
2019-04-07T08:36:14.230Z,23.23
2019-04-07T08:38:59.505Z,24.73
2019-04-07T08:41:53.241Z,25.30
2019-04-07T08:47:39.161Z,25.57
2019-04-07T08:50:31.102Z,26.07
2019-04-07T08:53:16.273Z,23.77
2019-04-07T08:56:10.894Z,23.77
2019-04-07T08:58:55.767Z,24.87
2019-04-07T09:01:40.648Z,24.53
2019-04-07T09:04:34.506Z,24.57
2019-04-07T09:07:19.689Z,26.63
2019-04-07T09:10:06.102Z,25.30
2019-04-07T09:13:07.747Z,25.10
2019-04-07T09:15:57.638Z,27.23
2019-04-07T09:19:04.692Z,25.63
2019-04-07T09:22:12.779Z,25.87
2019-04-07T09:25:55.049Z,24.23
2019-04-07T09:29:19.455Z,24.80
2019-04-07T09:32:22.645Z,24.40
2019-04-07T09:35:26.831Z,24.80
2019-04-07T09:38:35.402Z,23.63
2019-04-07T09:41:45.951Z,25.00
2019-04-07T09:45:10.832Z,22.83
2019-04-07T09:48:13.705Z,21.83
2019-04-07T09:51:41.614Z,22.17
2019-04-07T09:54:44.187Z,21.60
2019-04-07T09:57:57.728Z,21.80
2019-04-07T10:01:01.421Z,21.13
2019-04-07T10:04:00.286Z,20.50
2019-04-07T10:07:20.942Z,20.00
2019-04-07T10:10:22.669Z,19.80
2019-04-07T10:14:04.453Z,19.20
2019-04-07T10:17:31.796Z,19.03
2019-04-07T10:20:59.930Z,17.73
2019-04-07T10:24:30.236Z,18.13
2019-04-07T10:27:33.906Z,18.23
2019-04-07T10:30:58.511Z,16.03
2019-04-07T10:34:25.973Z,16.93
2019-04-07T10:37:29.307Z,15.73
2019-04-07T10:40:56.678Z,15.13
2019-04-07T10:44:05.839Z,15.30
2019-04-07T10:47:09.562Z,15.63
2019-04-07T10:50:44.666Z,16.00
2019-04-07T10:54:02.559Z,15.43
2019-04-07T10:57:34.446Z,14.70
2019-04-07T11:00:48.591Z,14.27
2019-04-07T11:03:53.604Z,14.20
2019-04-07T11:06:58.610Z,14.07
2019-04-07T11:10:34.565Z,14.50
2019-04-07T11:17:12.390Z,10.33
2019-04-07T11:20:44.487Z,11.60
2019-04-07T11:24:12.755Z,11.23
2019-04-07T11:27:25.581Z,7.57
2019-04-07T11:30:42.078Z,7.23
2019-04-07T11:34:03.324Z,7.60
2019-04-07T11:37:37.863Z,7.33
2019-04-07T11:40:52.442Z,8.60
2019-04-07T11:44:20.431Z,8.00
2019-04-07T11:47:42.751Z,6.37
2019-04-07T11:51:06.269Z,6.13
2019-04-07T11:54:33.925Z,7.17
2019-04-07T11:57:34.000Z,7.23
2019-04-07T12:00:41.782Z,7.47
2019-04-07T12:04:22.327Z,7.77
2019-04-07T12:07:46.312Z,6.50
2019-04-07T12:11:05.060Z,6.80
2019-04-07T12:14:16.243Z,6.70
2019-04-07T12:17:19.928Z,6.33
2019-04-07T12:20:33.865Z,5.57
2019-04-07T12:23:39.107Z,6.60
2019-04-07T12:26:43.742Z,8.17
2019-04-07T12:29:53.638Z,7.10
2019-04-07T12:33:17.864Z,9.73
2019-04-07T12:36:30.829Z,9.70
2019-04-07T12:39:54.359Z,6.50
2019-04-07T12:43:15.529Z,5.50
2019-04-07T12:46:26.375Z,5.60
2019-04-07T12:49:18.951Z,6.07
2019-04-07T12:52:32.009Z,9.93
2019-04-07T12:56:00.844Z,6.50
2019-04-07T12:59:23.881Z,7.07
2019-04-07T13:02:42.493Z,7.60
2019-04-07T13:05:46.338Z,5.83
2019-04-07T13:08:56.937Z,6.93
2019-04-07T13:12:32.202Z,7.43
2019-04-07T13:16:05.539Z,9.37
2019-04-07T13:19:37.183Z,9.60
2019-04-07T13:22:36.469Z,10.90
2019-04-07T13:26:04.085Z,10.00
2019-04-07T13:29:02.839Z,8.70
2019-04-07T13:32:24.000Z,7.80
2019-04-07T13:35:28.095Z,6.70
2019-04-07T13:41:55.228Z,6.47
2019-04-07T13:45:19.844Z,6.40
2019-04-07T13:48:43.232Z,6.70
2019-04-07T13:51:36.779Z,5.93
2019-04-07T13:54:40.440Z,6.23
2019-04-07T13:58:01.002Z,6.13
2019-04-07T14:00:55.948Z,6.43
2019-04-07T14:04:37.196Z,6.73
2019-04-07T14:07:41.054Z,6.83
2019-04-07T14:10:59.253Z,6.00
2019-04-07T14:14:16.725Z,8.00
2019-04-07T14:17:45.002Z,7.10
2019-04-07T14:20:57.796Z,6.70
2019-04-07T14:24:15.397Z,6.93
2019-04-07T14:27:05.443Z,7.03
2019-04-07T14:30:18.108Z,6.80
2019-04-07T14:33:58.997Z,6.57
2019-04-07T14:37:26.445Z,7.40
2019-04-07T14:40:29.077Z,6.93
2019-04-07T14:43:48.579Z,6.90
2019-04-07T14:47:16.687Z,7.00
2019-04-07T14:50:06.886Z,6.77
2019-04-07T14:53:48.427Z,6.97
2019-04-07T14:57:09.467Z,7.30
2019-04-07T15:03:11.574Z,7.37
2019-04-07T15:05:58.231Z,6.40
2019-04-07T15:12:45.718Z,7.33
2019-04-07T15:15:28.583Z,7.33
2019-04-07T15:18:13.509Z,7.23
2019-04-07T15:20:58.012Z,7.13
2019-04-07T15:23:44.799Z,7.10
2019-04-07T15:26:29.299Z,6.10
2019-04-07T15:29:14.682Z,6.60
2019-04-07T15:31:59.785Z,6.90
2019-04-07T15:34:54.620Z,6.27
2019-04-07T15:37:40.657Z,6.57
2019-04-07T15:40:26.044Z,7.00
2019-04-07T15:43:11.686Z,6.50
2019-04-07T15:45:57.208Z,6.77
2019-04-07T15:48:41.988Z,6.77
2019-04-07T15:51:26.909Z,6.93
2019-04-07T15:54:11.603Z,6.77
2019-04-07T15:56:58.572Z,7.20
2019-04-07T15:59:44.916Z,7.30
2019-04-07T16:02:30.154Z,7.77
2019-04-07T16:05:23.842Z,8.23
2019-04-07T16:08:11.152Z,8.40
2019-04-07T16:11:04.892Z,8.30
2019-04-07T16:13:59.491Z,7.83
2019-04-07T16:16:54.621Z,7.83
2019-04-07T16:19:52.034Z,8.33
2019-04-07T16:22:36.641Z,7.57
2019-04-07T16:25:30.611Z,7.33
2019-04-07T16:28:23.923Z,7.97
2019-04-07T16:31:08.553Z,8.90
2019-04-07T16:33:54.043Z,9.43
2019-04-07T16:36:40.177Z,9.23
2019-04-07T16:39:24.811Z,9.00
2019-04-07T16:42:09.346Z,8.97
2019-04-07T16:44:54.850Z,8.30
2019-04-07T16:47:39.895Z,8.80
2019-04-07T16:50:24.976Z,9.30
2019-04-07T16:53:18.695Z,9.50
2019-04-07T16:56:04.129Z,9.77
2019-04-07T16:58:57.410Z,9.43
2019-04-07T17:01:42.355Z,9.23
2019-04-07T17:04:15.842Z,8.77
2019-04-07T17:07:47.053Z,8.80
2019-04-07T17:10:37.676Z,9.23
2019-04-07T17:13:32.068Z,9.20
2019-04-07T17:16:10.963Z,9.10
2019-04-07T17:18:56.549Z,9.37
2019-04-07T17:21:42.819Z,9.20
2019-04-07T17:24:36.640Z,9.73
2019-04-07T17:27:21.340Z,9.47
2019-04-07T17:30:08.028Z,10.37
2019-04-07T17:33:03.281Z,9.40
2019-04-07T17:35:47.969Z,9.27
2019-04-07T17:42:14.404Z,9.43
2019-04-07T17:45:21.322Z,10.30
2019-04-07T17:48:24.524Z,9.30
2019-04-07T17:51:28.658Z,10.43
2019-04-07T17:54:32.843Z,9.33
2019-04-07T17:57:25.847Z,10.40
2019-04-07T18:01:08.301Z,8.77
2019-04-07T18:04:13.922Z,9.27
2019-04-07T18:07:52.212Z,9.20
2019-04-07T18:11:15.800Z,9.23
2019-04-07T18:14:28.303Z,9.20
2019-04-07T18:18:08.017Z,10.30
2019-04-07T18:21:14.526Z,10.37
2019-04-07T18:24:18.037Z,10.10
2019-04-07T18:28:01.903Z,10.37
2019-04-07T18:31:06.743Z,9.70
2019-04-07T18:34:27.690Z,10.27
2019-04-07T18:37:32.404Z,10.87
2019-04-07T18:44:17.199Z,11.07
2019-04-07T18:47:24.141Z,12.03
2019-04-07T18:50:51.799Z,12.20
2019-04-07T18:54:09.957Z,12.97
2019-04-07T18:57:37.133Z,13.00
2019-04-07T19:00:41.398Z,13.00
2019-04-07T19:03:48.505Z,13.60
2019-04-07T19:06:44.691Z,13.13
2019-04-07T19:14:30.632Z,13.83
2019-04-07T19:17:40.479Z,13.83
2019-04-07T19:20:51.481Z,13.50
2019-04-07T19:23:58.533Z,13.70
2019-04-07T19:26:54.638Z,13.77
2019-04-07T19:30:35.536Z,12.97
2019-04-07T19:33:39.717Z,13.17
2019-04-07T19:36:46.565Z,13.53
2019-04-07T19:39:47.436Z,12.87
2019-04-07T19:42:45.943Z,13.63
2019-04-07T19:46:28.792Z,12.87
2019-04-07T19:49:25.679Z,12.57
2019-04-07T19:52:33.840Z,12.50
2019-04-07T19:55:34.668Z,11.90
2019-04-07T19:58:32.653Z,12.47
2019-04-07T20:02:09.873Z,11.30
2019-04-07T20:05:07.997Z,11.87
2019-04-07T20:08:36.303Z,12.17
2019-04-07T20:11:40.379Z,11.63
2019-04-07T20:14:51.484Z,12.00
2019-04-07T20:18:10.346Z,11.70
2019-04-07T20:21:40.779Z,16.70
2019-04-07T20:28:09.169Z,11.20
2019-04-07T20:31:10.472Z,11.10
2019-04-07T20:34:52.607Z,10.33
2019-04-07T20:37:48.751Z,10.33
2019-04-07T20:41:29.474Z,9.83
2019-04-07T20:44:36.569Z,9.77
2019-04-07T20:48:01.259Z,10.03
2019-04-07T20:51:14.793Z,9.73
2019-04-07T20:54:15.236Z,10.40
2019-04-07T20:58:10.184Z,9.53
2019-04-07T21:01:10.049Z,9.50
2019-04-07T21:04:49.937Z,9.63
2019-04-07T21:08:18.050Z,9.50
2019-04-07T21:11:51.100Z,9.80
2019-04-07T21:15:16.952Z,9.83
2019-04-07T21:18:28.888Z,8.67
2019-04-07T21:21:32.274Z,9.50
2019-04-07T21:25:19.476Z,9.27
2019-04-07T21:28:59.399Z,8.77
2019-04-07T21:32:03.506Z,8.83
2019-04-07T21:35:35.473Z,9.17
2019-04-07T21:39:05.931Z,8.43
2019-04-07T21:42:29.678Z,8.43
2019-04-07T21:45:41.096Z,8.93
2019-04-07T21:52:55.605Z,9.37
2019-04-07T21:56:24.911Z,9.20
2019-04-07T21:59:26.593Z,9.97
2019-04-07T22:03:03.832Z,10.13
2019-04-07T22:06:12.314Z,9.87
2019-04-07T22:09:29.051Z,10.53
2019-04-07T22:12:13.476Z,10.07
2019-04-07T22:14:59.044Z,10.27
2019-04-07T22:17:52.639Z,10.73
2019-04-07T22:20:37.512Z,10.60
2019-04-07T22:23:23.021Z,10.73
2019-04-07T22:26:18.967Z,10.30
2019-04-07T22:29:12.311Z,11.07
2019-04-07T22:31:59.735Z,10.77
2019-04-07T22:34:44.288Z,10.33
2019-04-07T22:37:28.962Z,10.13
2019-04-07T22:40:22.862Z,11.37
2019-04-07T22:43:17.070Z,11.40
2019-04-07T22:46:08.664Z,12.33
2019-04-07T22:48:50.098Z,11.43
2019-04-07T22:51:35.028Z,11.10
2019-04-07T22:54:19.457Z,10.60
2019-04-07T22:57:15.332Z,10.93
2019-04-07T22:59:59.100Z,10.47
2019-04-07T23:02:44.428Z,10.07
2019-04-07T23:05:29.746Z,9.70
2019-04-07T23:08:22.697Z,9.60
2019-04-07T23:11:07.379Z,9.27
2019-04-07T23:13:52.095Z,8.40
2019-04-07T23:16:37.987Z,8.47
2019-04-07T23:19:32.253Z,8.00
2019-04-07T23:22:26.012Z,7.67
2019-04-07T23:25:10.644Z,7.57
2019-04-07T23:27:56.309Z,7.53
2019-04-07T23:30:41.030Z,7.13
2019-04-07T23:33:27.611Z,7.77
2019-04-07T23:36:13.644Z,7.40
2019-04-07T23:39:07.000Z,6.93
2019-04-07T23:41:51.270Z,6.30
2019-04-07T23:44:36.136Z,5.70
2019-04-07T23:47:21.596Z,5.20
2019-04-07T23:50:07.046Z,5.07
2019-04-07T23:53:00.329Z,5.00
2019-04-07T23:55:46.349Z,3.80
2019-04-07T23:58:31.598Z,3.90
